Hauptseite
METAR-TAF:

METAR-TAF

Flughäfen :

Lahr, Deutschland

Flughafen Lahr

Breite: 48-22-09N, Länge: 007-49-40E, Höhe: 156 m

Beobachtung

Neuester Wetterbericht von vor 13 Stunden und 37 Minuten, um 18:50 UTC
Wind 5 kt aus Nord/Nordost
Temperatur 4°C
Luftfeuchtigkeit 100%
Luftdruck 1026 hPa
Sichtweite: 3200 m
Geschlossene Wolkendecke in der Höhe von 200 ft
feuchter Dunst

METAR: EDTL 171850Z 03005KT 3200 BR OVC002 04/04 Q1026

Zeit: 09:27 (08:27 UTC)

Prognose

Neuester Wetterbericht von vor 15 Stunden und 27 Minuten, um 17:00 UTC
Gültige Prognose vom 17 um 18 UTC bis 17 um 24 UTC
Wind 2 kt aus unterschiedlichen Richtungen
Sichtweite: 4000 m
Geschlossene Wolkendecke in der Höhe von 500 ft
feuchter Dunst
Zeitweise
vom 17 um 18 UTC bis 17 um 24 UTC
Sichtweite: 2000 m
Geschlossene Wolkendecke in der Höhe von 300 ft
feuchter Dunst

TAF: EDTL 171700Z 1718/1724 VRB02KT 4000 BR OVC005 TEMPO 1718/1724 2000 BR OVC003

Wetterbeobachtungen und Prognosen von mehr als 4000 Flughäfen (METAR und TAF Bericht).

Die verfügbaren Stationen werden durch gelbe und rote Markierungen auf der Karte dargestellt.

Führen Sie die Maus auf sie, um den Namen der Station zu sehen.

Darauf klicken, um die Beobachtung von Wetterbeobachtungen und Prognosen zu sehen.

Um die Karte zu ändern : klicken Sie auf den grünen Tasten mit einem schwarzen Kreuz Zum Vergrößern, auf den grünen Button mit einem Gedankenstrich zu verkleinern, oder auf die grünen Pfeile für benachbarte Karten.


METAR-TAF: